Time;durP1;ratioP1;P1;durP2;ratioP2;P2;SDS_P1;SDS_P2;PMS_P1;PMS_P2;Temp;Humidity;BMP_temperature;BMP_pressure;BME280_temperature;BME280_humidity;BME280_pressure;Samples;Min_cycle;Max_cycle;Signal;HPM_P1;HPM_P2
2021/12/30 00:00:17;;;;;;;10.93;10.33;;;;;;;3.72;98.95;92164.75;5051320;28;20198;-76
2021/12/30 00:02:42;;;;;;;12.27;11.57;;;;;;;3.74;99.68;92152.38;5069116;28;20197;-76
2021/12/30 00:05:09;;;;;;;10.00;9.43;;;;;;;3.88;98.91;92173.38;5065645;28;20807;-76
2021/12/30 00:07:34;;;;;;;11.53;10.90;;;;;;;3.94;98.56;92177.56;5058516;28;20248;-76
2021/12/30 00:10:00;;;;;;;11.17;10.47;;;;;;;3.83;98.91;92168.19;5066821;28;20201;-77
2021/12/30 00:12:25;;;;;;;11.90;11.27;;;;;;;3.81;99.02;92162.50;5066059;28;20229;-76
2021/12/30 00:14:51;;;;;;;10.80;10.20;;;;;;;3.88;97.93;92168.19;5063362;28;20190;-76
2021/12/30 00:17:16;;;;;;;10.83;10.23;;;;;;;3.85;98.00;92148.84;5052200;28;20218;-76
2021/12/30 00:19:42;;;;;;;11.30;10.70;;;;;;;3.83;98.52;92163.78;5066853;28;20201;-76
2021/12/30 00:22:07;;;;;;;11.57;10.87;;;;;;;3.98;97.97;92178.59;5050379;28;20237;-76
2021/12/30 00:24:33;;;;;;;10.93;10.30;;;;;;;3.91;97.87;92183.97;5041268;28;20186;-76
2021/12/30 00:26:58;;;;;;;10.47;9.87;;;;;;;3.87;98.80;92193.25;5058398;28;20261;-76
2021/12/30 00:29:24;;;;;;;11.03;10.43;;;;;;;3.78;98.45;92170.72;5065321;28;20197;-76
2021/12/30 00:31:50;;;;;;;11.20;10.60;;;;;;;3.83;99.01;92191.44;5054377;28;20355;-76
2021/12/30 00:34:16;;;;;;;10.53;10.03;;;;;;;3.94;99.37;92193.81;5043075;28;20201;-76
2021/12/30 00:36:42;;;;;;;10.07;9.57;;;;;;;3.79;98.48;92180.81;5068178;28;20229;-76
2021/12/30 00:39:09;;;;;;;11.47;10.77;;;;;;;3.88;98.92;92199.97;5061447;28;20223;-76
2021/12/30 00:41:34;;;;;;;10.73;10.23;;;;;;;3.82;98.39;92193.22;5059389;28;20247;-77
2021/12/30 00:44:01;;;;;;;10.13;9.63;;;;;;;3.82;98.44;92195.00;5061099;28;20215;-76
2021/12/30 00:46:26;;;;;;;9.90;9.50;;;;;;;3.82;98.49;92195.81;5066311;28;20226;-76
2021/12/30 00:48:52;;;;;;;10.40;9.90;;;;;;;3.77;99.09;92206.09;5054918;28;20599;-76
2021/12/30 00:51:17;;;;;;;10.07;9.57;;;;;;;3.66;99.31;92175.31;5067921;28;20222;-76
2021/12/30 00:53:43;;;;;;;10.50;10.00;;;;;;;3.82;98.74;92200.97;5055025;28;20193;-76
2021/12/30 00:56:08;;;;;;;10.50;10.00;;;;;;;3.60;97.79;92166.72;5066085;28;20237;-76
2021/12/30 00:58:34;;;;;;;10.13;9.63;;;;;;;3.76;98.53;92201.97;5048966;28;20218;-76
2021/12/30 01:00:59;;;;;;;10.30;9.80;;;;;;;3.80;98.74;92208.16;5071694;28;20228;-76
2021/12/30 01:03:27;;;;;;;9.90;9.40;;;;;;;3.47;99.20;92141.34;5071055;28;20188;-77
2021/12/30 01:05:53;;;;;;;10.43;9.93;;;;;;;3.68;97.83;92180.97;5071669;28;20217;-76
2021/12/30 01:08:18;;;;;;;11.30;10.70;;;;;;;3.76;98.84;92185.69;5055097;28;20255;-76
2021/12/30 01:10:45;;;;;;;10.07;9.57;;;;;;;3.69;99.25;92200.63;5055426;28;20229;-76
2021/12/30 01:13:17;;;;;;;12.27;11.37;;;;;;;3.84;98.21;92216.22;5069338;28;20219;-76
2021/12/30 01:15:48;;;;;;;10.70;10.20;;;;;;;3.75;98.77;92209.94;5072515;28;20229;-76
2021/12/30 01:21:13;;;;;;;10.37;9.77;;;;;;;3.80;99.13;92215.91;5000980;28;20240;-76
2021/12/30 01:23:41;;;;;;;10.00;9.60;;;;;;;3.83;97.88;92225.00;5056245;28;20214;-76
2021/12/30 01:26:07;;;;;;;10.33;9.83;;;;;;;3.89;97.75;92231.75;5068999;28;20225;-76
2021/12/30 01:28:33;;;;;;;10.53;10.03;;;;;;;3.85;98.58;92231.44;5071853;28;20185;-76
2021/12/30 01:30:59;;;;;;;10.33;9.83;;;;;;;4.04;97.87;92234.44;5072463;28;20233;-76
2021/12/30 01:33:25;;;;;;;10.67;9.97;;;;;;;3.89;97.76;92232.50;5070543;28;20193;-76
2021/12/30 01:35:51;;;;;;;11.50;10.43;;;;;;;3.77;97.46;92215.63;5067013;28;20225;-76
2021/12/30 01:38:17;;;;;;;10.73;10.27;;;;;;;3.77;96.80;92231.91;5068876;28;20198;-76
2021/12/30 01:40:45;;;;;;;9.77;9.30;;;;;;;3.76;97.60;92201.97;5066305;28;20552;-76
2021/12/30 01:43:11;;;;;;;9.50;9.10;;;;;;;3.79;96.71;92221.31;5064817;28;20190;-76
2021/12/30 01:45:39;;;;;;;12.77;12.23;;;;;;;3.77;96.87;92219.00;5066400;28;20231;-76
2021/12/30 01:48:05;;;;;;;10.13;9.63;;;;;;;3.80;97.77;92231.41;5063674;28;20186;-76
2021/12/30 01:50:30;;;;;;;10.33;9.80;;;;;;;4.00;98.25;92223.81;5071421;28;20240;-76
2021/12/30 01:52:58;;;;;;;8.80;8.37;;;;;;;3.98;97.32;92231.03;5061598;28;20194;-76
2021/12/30 01:55:24;;;;;;;9.93;9.43;;;;;;;3.96;97.40;92222.75;5057159;28;20186;-76
2021/12/30 01:57:50;;;;;;;9.60;9.17;;;;;;;3.80;97.35;92208.16;5060546;28;20181;-76
2021/12/30 02:00:20;;;;;;;10.03;9.63;;;;;;;3.85;96.55;92225.50;5066330;28;20218;-76
2021/12/30 02:02:45;;;;;;;9.67;9.23;;;;;;;3.96;96.94;92227.13;5056979;28;20269;-76
2021/12/30 02:05:11;;;;;;;10.13;9.63;;;;;;;3.91;96.35;92232.25;5069472;28;20223;-77
2021/12/30 02:07:37;;;;;;;10.93;10.43;;;;;;;3.87;96.02;92233.78;5054696;28;20183;-76
2021/12/30 02:10:04;;;;;;;8.93;8.63;;;;;;;3.88;96.59;92236.13;5067338;28;20198;-76
2021/12/30 02:12:32;;;;;;;10.53;10.03;;;;;;;3.76;96.22;92217.44;5070188;28;20222;-76
2021/12/30 02:14:57;;;;;;;9.97;9.57;;;;;;;3.98;95.97;92245.75;5069016;28;20200;-77
2021/12/30 02:17:23;;;;;;;10.03;9.43;;;;;;;3.96;97.08;92235.66;5069767;28;20244;-76
2021/12/30 02:19:49;;;;;;;10.07;9.57;;;;;;;3.68;97.02;92202.41;5069536;28;20181;-76
2021/12/30 02:22:14;;;;;;;9.87;9.47;;;;;;;3.71;97.56;92232.88;5071943;28;20255;-76
2021/12/30 02:24:47;;;;;;;11.17;10.37;;;;;;;3.85;97.90;92244.34;5060819;28;20193;-76
2021/12/30 02:27:13;;;;;;;9.27;8.87;;;;;;;3.79;96.91;92244.56;5069465;28;20232;-76
2021/12/30 02:29:39;;;;;;;10.60;10.10;;;;;;;3.53;97.05;92184.25;5069187;28;20185;-77
2021/12/30 02:32:05;;;;;;;10.37;9.77;;;;;;;3.67;98.05;92229.25;5064706;28;20227;-76
2021/12/30 02:34:30;;;;;;;10.70;10.17;;;;;;;3.73;98.25;92243.75;5068250;28;20211;-76
2021/12/30 02:36:56;;;;;;;9.93;9.43;;;;;;;3.65;99.09;92230.50;5067617;28;20232;-76
2021/12/30 02:39:23;;;;;;;11.10;10.50;;;;;;;3.59;99.09;92227.13;5071432;28;20201;-76
2021/12/30 02:41:49;;;;;;;10.23;9.73;;;;;;;3.76;98.62;92256.16;5053048;28;20260;-76
2021/12/30 02:44:16;;;;;;;10.87;10.23;;;;;;;3.83;99.08;92256.72;5054736;28;20234;-76
2021/12/30 02:46:41;;;;;;;10.70;10.20;;;;;;;3.75;99.10;92257.16;5068205;28;20233;-76
2021/12/30 02:49:08;;;;;;;10.67;10.17;;;;;;;3.65;99.89;92246.78;5060132;28;20580;-76
2021/12/30 02:51:34;;;;;;;9.30;8.90;;;;;;;3.85;99.30;92267.59;5060336;28;20221;-77
2021/12/30 02:54:00;;;;;;;10.57;9.97;;;;;;;3.87;98.41;92275.09;5053979;28;20220;-76
2021/12/30 02:56:26;;;;;;;10.03;9.53;;;;;;;3.75;98.46;92256.41;5062837;28;20241;-77
2021/12/30 02:58:52;;;;;;;10.30;9.67;;;;;;;3.95;98.63;92277.22;5053620;28;20194;-76
2021/12/30 03:01:20;;;;;;;9.93;9.53;;;;;;;3.67;97.45;92243.94;5050325;28;20233;-77
2021/12/30 03:03:47;;;;;;;10.13;9.70;;;;;;;3.95;96.85;92277.22;5069053;28;20264;-77
2021/12/30 03:06:14;;;;;;;9.63;9.13;;;;;;;3.83;98.22;92264.47;5063638;28;20247;-76
2021/12/30 03:08:41;;;;;;;10.27;9.67;;;;;;;3.64;97.76;92247.03;5060828;28;20182;-76
2021/12/30 03:11:07;;;;;;;8.90;8.40;;;;;;;3.86;97.88;92289.03;5058321;28;20244;-76
2021/12/30 03:13:34;;;;;;;10.77;10.20;;;;;;;3.87;98.22;92283.63;5069580;28;20829;-76
2021/12/30 03:16:06;;;;;;;10.50;10.00;;;;;;;3.84;98.81;92281.53;5060241;28;20236;-77
2021/12/30 03:18:33;;;;;;;11.10;10.60;;;;;;;3.64;98.31;92281.38;5053685;28;20253;-77
2021/12/30 03:21:00;;;;;;;10.27;9.67;;;;;;;3.69;98.10;92289.13;5063716;28;20287;-77
2021/12/30 03:23:25;;;;;;;9.77;9.37;;;;;;;3.69;98.85;92281.38;5068280;28;20255;-76
2021/12/30 03:25:51;;;;;;;10.37;9.87;;;;;;;3.62;98.44;92283.41;5066454;28;20230;-76
2021/12/30 03:28:17;;;;;;;11.37;10.67;;;;;;;3.75;98.62;92305.47;5063822;28;20582;-76
2021/12/30 03:30:42;;;;;;;10.33;9.87;;;;;;;3.78;98.25;92304.97;5057413;28;20229;-76
2021/12/30 03:33:08;;;;;;;10.80;10.30;;;;;;;3.71;98.73;92307.75;5064277;28;20208;-77
2021/12/30 03:35:34;;;;;;;11.63;10.90;;;;;;;3.69;97.92;92294.28;5067060;28;20213;-76
2021/12/30 03:37:59;;;;;;;12.37;11.50;;;;;;;3.52;97.78;92269.63;5069379;28;20185;-76
2021/12/30 03:40:25;;;;;;;12.63;11.70;;;;;;;3.70;98.10;92302.81;5059266;28;20217;-76
2021/12/30 03:42:50;;;;;;;11.83;11.03;;;;;;;3.69;98.62;92302.03;5069268;28;20194;-77
2021/12/30 03:45:16;;;;;;;12.50;11.70;;;;;;;3.75;98.82;92301.06;5046898;28;20206;-76
2021/12/30 03:47:44;;;;;;;11.73;11.03;;;;;;;3.83;98.07;92300.63;5067841;28;20197;-76
2021/12/30 03:50:21;;;;;;;12.37;11.53;;;;;;;3.79;97.85;92293.59;5064463;28;20181;-76
2021/12/30 03:52:50;;;;;;;11.10;10.47;;;;;;;3.82;98.55;92311.19;5069503;28;20192;-76
2021/12/30 03:55:18;;;;;;;12.27;11.47;;;;;;;3.70;98.27;92316.53;5051381;28;20193;-76
2021/12/30 03:57:44;;;;;;;10.43;9.87;;;;;;;3.56;98.14;92299.88;5054619;28;20192;-77
2021/12/30 04:00:11;;;;;;;10.90;10.30;;;;;;;3.68;98.02;92317.75;5065069;28;20193;-76
2021/12/30 04:02:36;;;;;;;11.13;10.50;;;;;;;3.68;98.40;92323.72;5067574;28;20200;-76
2021/12/30 04:05:02;;;;;;;11.33;10.83;;;;;;;3.67;98.19;92323.97;5066735;28;20189;-78
2021/12/30 04:07:27;;;;;;;11.57;10.67;;;;;;;3.57;98.31;92329.00;5049555;28;20221;-77
2021/12/30 04:09:53;;;;;;;11.53;10.93;;;;;;;3.68;98.04;92341.00;5063907;28;20193;-76
2021/12/30 04:12:18;;;;;;;11.00;10.30;;;;;;;3.73;97.77;92343.63;5067013;28;20232;-76
2021/12/30 04:14:44;;;;;;;11.97;11.17;;;;;;;3.71;97.17;92340.50;5051214;28;20186;-76
2021/12/30 04:17:09;;;;;;;12.23;11.57;;;;;;;3.60;97.95;92355.13;5057265;28;20226;-76
2021/12/30 04:19:35;;;;;;;10.73;10.13;;;;;;;3.51;98.54;92333.34;5059821;28;20182;-76
2021/12/30 04:22:00;;;;;;;12.03;11.33;;;;;;;3.76;97.94;92356.84;5056312;28;20238;-77
2021/12/30 04:24:26;;;;;;;12.57;11.77;;;;;;;3.60;97.77;92355.13;5055312;28;20277;-76
2021/12/30 04:26:51;;;;;;;11.97;11.27;;;;;;;3.43;97.72;92327.81;5042141;28;20225;-76
2021/12/30 04:29:21;;;;;;;12.40;11.67;;;;;;;3.73;97.63;92374.59;5070531;28;20174;-76
2021/12/30 04:31:47;;;;;;;11.17;10.47;;;;;;;3.57;98.29;92383.19;5066989;28;20237;-76
2021/12/30 04:34:13;;;;;;;11.03;10.33;;;;;;;3.65;98.53;92380.19;5061047;28;20220;-76
2021/12/30 04:36:39;;;;;;;10.97;10.37;;;;;;;3.62;98.31;92391.78;5062776;28;20236;-76
2021/12/30 04:39:06;;;;;;;12.07;11.27;;;;;;;3.60;98.75;92393.81;5054912;28;20192;-76
2021/12/30 04:41:31;;;;;;;11.77;11.07;;;;;;;3.46;99.18;92369.41;5052738;28;20276;-76
2021/12/30 04:43:57;;;;;;;11.50;10.90;;;;;;;3.71;98.50;92390.34;5068921;28;20185;-76
2021/12/30 04:46:23;;;;;;;11.27;10.50;;;;;;;3.51;99.16;92395.28;5072788;28;20292;-76
2021/12/30 04:48:49;;;;;;;12.00;11.30;;;;;;;3.40;99.81;92398.75;5057806;28;20217;-76
2021/12/30 04:51:16;;;;;;;11.97;11.27;;;;;;;3.52;100.00;92402.00;5071262;28;20301;-75
2021/12/30 04:53:42;;;;;;;12.37;11.37;;;;;;;3.36;100.00;92392.53;5063124;28;20188;-76
2021/12/30 04:56:07;;;;;;;13.10;12.40;;;;;;;3.33;100.00;92397.38;5057938;28;20245;-76
2021/12/30 04:58:33;;;;;;;12.23;11.43;;;;;;;3.48;99.59;92392.38;5069182;28;20224;-76
2021/12/30 05:00:58;;;;;;;10.83;10.23;;;;;;;3.56;100.00;92423.72;5071177;28;20242;-76
2021/12/30 05:03:23;;;;;;;11.53;10.90;;;;;;;3.62;99.39;92417.59;5054840;28;20186;-76
2021/12/30 05:05:52;;;;;;;11.87;11.20;;;;;;;3.63;98.46;92424.31;5056383;28;20762;-76
2021/12/30 05:08:20;;;;;;;11.87;11.17;;;;;;;3.59;98.90;92431.00;5070986;28;20204;-76
2021/12/30 05:10:46;;;;;;;11.90;11.30;;;;;;;3.49;99.32;92422.34;5069680;28;20312;-76
2021/12/30 05:13:12;;;;;;;11.37;10.67;;;;;;;3.63;98.66;92433.88;5064041;28;20198;-76
2021/12/30 05:15:38;;;;;;;12.13;11.43;;;;;;;3.53;98.52;92423.41;5057399;28;20222;-76
2021/12/30 05:18:07;;;;;;;11.63;11.03;;;;;;;3.58;99.35;92442.31;5071212;28;20193;-74
2021/12/30 05:20:32;;;;;;;12.70;11.93;;;;;;;3.45;99.22;92432.38;5053902;28;20233;-76
2021/12/30 05:22:58;;;;;;;11.80;11.13;;;;;;;3.51;98.29;92444.31;5068258;28;20240;-76
2021/12/30 05:25:24;;;;;;;10.97;10.37;;;;;;;3.41;98.68;92431.25;5058583;28;20217;-76
2021/12/30 05:27:51;;;;;;;10.60;10.00;;;;;;;3.42;99.30;92432.84;5058944;28;20198;-76
2021/12/30 05:30:17;;;;;;;11.50;10.80;;;;;;;3.55;98.86;92463.44;5070446;28;20189;-76
2021/12/30 05:32:43;;;;;;;12.77;11.97;;;;;;;3.48;99.20;92452.53;5051235;28;20276;-76
2021/12/30 05:35:11;;;;;;;10.80;10.20;;;;;;;3.46;98.63;92467.47;5068713;28;20197;-76
2021/12/30 05:37:36;;;;;;;10.43;9.83;;;;;;;3.66;97.33;92474.69;5060453;28;20797;-76
2021/12/30 05:40:05;;;;;;;12.30;11.57;;;;;;;3.59;97.29;92474.84;5057621;28;20178;-76
2021/12/30 05:42:30;;;;;;;12.60;11.90;;;;;;;3.41;98.51;92476.94;5065705;28;20236;-76
2021/12/30 05:44:56;;;;;;;11.97;11.23;;;;;;;3.33;98.75;92474.78;5059491;28;20186;-76
2021/12/30 05:47:22;;;;;;;13.20;12.50;;;;;;;3.21;98.69;92469.69;5064809;28;20722;-76
2021/12/30 05:49:48;;;;;;;13.73;12.80;;;;;;;3.35;97.75;92470.91;5066184;28;20190;-76
2021/12/30 05:52:15;;;;;;;13.60;12.80;;;;;;;3.60;98.81;92493.69;5055962;28;20221;-76
2021/12/30 05:54:41;;;;;;;12.87;12.07;;;;;;;3.47;98.54;92492.22;5059062;28;20209;-76
2021/12/30 05:57:07;;;;;;;12.80;11.87;;;;;;;3.37;99.35;92492.13;5069585;28;20233;-76
2021/12/30 05:59:32;;;;;;;12.50;11.70;;;;;;;3.58;97.52;92493.94;5061684;28;20200;-77
2021/12/30 06:01:58;;;;;;;13.10;12.20;;;;;;;3.49;98.50;92497.19;5061384;28;20234;-76
2021/12/30 06:04:25;;;;;;;12.43;11.63;;;;;;;3.70;97.50;92504.94;5062120;28;20206;-76
2021/12/30 06:06:50;;;;;;;12.77;11.97;;;;;;;3.75;96.84;92489.50;5055745;28;20236;-76
2021/12/30 06:09:16;;;;;;;13.67;12.77;;;;;;;3.52;97.25;92510.38;5072140;28;20197;-76
2021/12/30 06:11:41;;;;;;;13.87;12.97;;;;;;;3.54;97.91;92508.34;5071314;28;20221;-76
2021/12/30 06:14:07;;;;;;;13.00;12.30;;;;;;;3.66;97.58;92506.44;5071804;28;20204;-76
2021/12/30 06:16:33;;;;;;;12.60;11.83;;;;;;;3.58;97.33;92519.72;5067929;28;20225;-76
2021/12/30 06:18:59;;;;;;;13.93;12.93;;;;;;;3.63;97.73;92526.78;5058759;28;20205;-76
2021/12/30 06:21:25;;;;;;;12.80;11.80;;;;;;;3.86;97.60;92536.91;5065093;28;20287;-76
2021/12/30 06:23:51;;;;;;;14.13;13.10;;;;;;;3.79;96.26;92544.81;5069269;28;20244;-76
2021/12/30 06:26:16;;;;;;;14.53;13.53;;;;;;;3.67;96.90;92548.50;5068979;28;20233;-76
2021/12/30 06:28:42;;;;;;;13.33;12.23;;;;;;;3.83;96.65;92551.03;5070962;28;20216;-76
2021/12/30 06:31:07;;;;;;;12.63;11.63;;;;;;;3.60;96.50;92524.66;5055830;28;20234;-76
2021/12/30 06:33:33;;;;;;;13.40;12.47;;;;;;;3.70;96.19;92548.81;5070236;28;20273;-76
2021/12/30 06:35:58;;;;;;;13.93;13.03;;;;;;;3.64;96.26;92560.09;5070767;28;20244;-76
2021/12/30 06:38:24;;;;;;;13.60;12.60;;;;;;;3.69;97.84;92567.91;5069553;28;20198;-76
2021/12/30 06:40:49;;;;;;;12.13;11.33;;;;;;;3.48;98.13;92558.31;5064862;28;20336;-76
2021/12/30 06:43:15;;;;;;;14.20;13.30;;;;;;;3.57;97.91;92580.13;5065934;28;20202;-76
2021/12/30 06:45:40;;;;;;;14.20;13.20;;;;;;;3.59;97.82;92582.47;5053226;28;20255;-76
2021/12/30 06:48:07;;;;;;;12.23;11.50;;;;;;;3.73;97.17;92570.78;5068444;28;20305;-76
2021/12/30 06:50:33;;;;;;;13.90;13.00;;;;;;;3.63;97.08;92596.47;5069904;28;20244;-76
2021/12/30 06:52:59;;;;;;;11.70;11.00;;;;;;;3.57;96.52;92598.19;5065262;28;20205;-77
2021/12/30 06:55:25;;;;;;;11.67;11.03;;;;;;;3.72;94.04;92606.13;5068879;28;20197;-76
2021/12/30 06:57:51;;;;;;;11.47;10.87;;;;;;;3.67;92.63;92610.47;5067726;28;20178;-76
2021/12/30 07:00:16;;;;;;;11.73;11.03;;;;;;;3.50;93.92;92610.47;5069414;28;20270;-76
2021/12/30 07:02:43;;;;;;;10.77;10.17;;;;;;;3.67;93.26;92613.03;5071273;28;20233;-76
2021/12/30 07:05:09;;;;;;;10.73;10.13;;;;;;;3.77;91.26;92619.13;5069910;28;20196;-76
2021/12/30 07:07:35;;;;;;;11.90;11.17;;;;;;;3.99;90.92;92619.16;5068834;28;20201;-76
2021/12/30 07:10:00;;;;;;;12.03;11.23;;;;;;;3.89;92.35;92629.38;5071126;28;20193;-76
2021/12/30 07:12:26;;;;;;;11.27;10.73;;;;;;;4.00;89.86;92634.41;5067528;28;20225;-76
2021/12/30 07:14:51;;;;;;;10.93;10.27;;;;;;;3.87;90.10;92627.03;5068656;28;20281;-76
2021/12/30 07:17:17;;;;;;;10.47;9.97;;;;;;;3.77;89.76;92633.81;5067113;28;20218;-76
2021/12/30 07:19:42;;;;;;;10.63;10.13;;;;;;;3.59;91.71;92642.63;5053633;28;20192;-76
2021/12/30 07:22:08;;;;;;;9.80;9.30;;;;;;;3.93;91.88;92659.66;5070262;28;20225;-76
2021/12/30 07:24:33;;;;;;;10.60;10.07;;;;;;;3.94;89.30;92650.88;5066709;28;20190;-76
2021/12/30 07:26:59;;;;;;;10.83;10.13;;;;;;;3.79;89.97;92666.16;5068136;28;20268;-76
2021/12/30 07:29:24;;;;;;;11.40;10.77;;;;;;;3.66;90.60;92676.78;5061366;28;20229;-76
2021/12/30 07:31:49;;;;;;;11.50;10.90;;;;;;;3.76;89.56;92673.56;5053707;28;20271;-76
2021/12/30 07:34:15;;;;;;;10.60;10.10;;;;;;;3.71;91.46;92676.88;5068060;28;20276;-76
2021/12/30 07:36:41;;;;;;;10.67;10.17;;;;;;;3.86;90.36;92677.09;5067016;28;20288;-76
2021/12/30 07:39:06;;;;;;;10.77;10.23;;;;;;;3.67;90.31;92675.00;5062393;28;20220;-75
2021/12/30 07:41:32;;;;;;;11.03;10.43;;;;;;;3.69;90.22;92686.63;5066474;28;20233;-76
2021/12/30 07:43:58;;;;;;;11.13;10.47;;;;;;;3.75;90.63;92696.03;5067059;28;20248;-76
2021/12/30 07:46:23;;;;;;;11.50;10.80;;;;;;;3.83;88.45;92682.72;5061283;28;20222;-76
2021/12/30 07:48:49;;;;;;;12.00;11.20;;;;;;;3.84;88.06;92694.63;5054033;28;20210;-76
2021/12/30 07:51:14;;;;;;;11.80;11.20;;;;;;;3.76;88.26;92705.34;5066109;28;20232;-76
2021/12/30 07:53:40;;;;;;;11.67;10.97;;;;;;;3.91;89.91;92705.56;5039758;28;20249;-76
2021/12/30 07:56:07;;;;;;;11.37;10.77;;;;;;;4.19;85.79;92687.38;5050836;28;20249;-76
2021/12/30 07:58:33;;;;;;;11.20;10.60;;;;;;;3.99;85.24;92661.28;5067935;28;20213;-76
2021/12/30 08:00:58;;;;;;;10.70;10.20;;;;;;;4.14;85.00;92715.72;5066172;28;20279;-76
2021/12/30 08:03:24;;;;;;;10.40;9.53;;;;;;;4.35;84.43;92715.00;5063915;28;20201;-77
2021/12/30 08:05:51;;;;;;;13.90;12.90;;;;;;;4.13;84.84;92719.34;5068093;28;20225;-76
2021/12/30 08:08:16;;;;;;;15.60;14.40;;;;;;;4.33;84.50;92729.16;5067606;28;20185;-76
2021/12/30 08:10:42;;;;;;;11.47;10.80;;;;;;;4.49;82.08;92723.97;5052373;28;20220;-76
2021/12/30 08:13:07;;;;;;;17.33;15.83;;;;;;;4.41;83.68;92710.66;5051438;28;20194;-77
2021/12/30 08:15:33;;;;;;;30.17;26.47;;;;;;;4.16;83.68;92713.69;5069681;28;20228;-76
2021/12/30 08:17:58;;;;;;;40.70;29.60;;;;;;;4.11;84.49;92720.59;5056702;28;20190;-76
2021/12/30 08:20:27;;;;;;;13.97;12.87;;;;;;;4.16;83.01;92718.84;5059372;28;20194;-76
2021/12/30 08:22:52;;;;;;;11.57;10.97;;;;;;;4.17;82.18;92722.22;5057925;28;20235;-77
2021/12/30 08:25:18;;;;;;;10.17;9.67;;;;;;;4.01;83.84;92735.94;5067086;28;20194;-76
2021/12/30 08:27:45;;;;;;;10.83;10.33;;;;;;;4.09;84.43;92738.13;5068420;28;20202;-76
2021/12/30 08:30:17;;;;;;;11.23;10.63;;;;;;;4.12;83.80;92756.53;5067538;28;20211;-76
2021/12/30 08:32:44;;;;;;;10.57;10.07;;;;;;;4.39;84.48;92754.84;5063305;28;20233;-77
2021/12/30 08:35:11;;;;;;;10.67;10.13;;;;;;;4.16;83.63;92747.28;5061588;28;20198;-76
2021/12/30 08:37:37;;;;;;;11.30;10.70;;;;;;;4.11;82.54;92741.25;5067158;28;20639;-76
2021/12/30 08:40:08;;;;;;;10.23;9.73;;;;;;;4.41;82.21;92762.34;5061373;28;20204;-76
2021/12/30 08:42:37;;;;;;;14.40;13.20;;;;;;;4.27;82.81;92777.41;5056889;28;20201;-76
2021/12/30 08:45:05;;;;;;;10.67;10.17;;;;;;;4.38;80.01;92781.72;5067185;28;20219;-76
2021/12/30 08:47:31;;;;;;;13.00;12.23;;;;;;;3.88;82.21;92783.50;5051114;28;20230;-76
2021/12/30 08:49:57;;;;;;;12.03;11.23;;;;;;;4.20;84.56;92787.09;5069334;28;20216;-76
2021/12/30 08:52:25;;;;;;;13.83;12.87;;;;;;;4.41;83.00;92794.16;5054333;28;20222;-76
2021/12/30 08:54:52;;;;;;;12.43;11.53;;;;;;;4.28;82.54;92797.06;5065597;28;20193;-76
2021/12/30 08:57:19;;;;;;;10.70;10.20;;;;;;;3.96;83.60;92796.03;5061454;28;20238;-76
2021/12/30 08:59:45;;;;;;;9.90;9.40;;;;;;;3.87;84.57;92802.59;5065436;28;20292;-76
2021/12/30 09:02:11;;;;;;;10.30;9.80;;;;;;;4.19;83.00;92788.13;5065874;28;20224;-76
2021/12/30 09:04:36;;;;;;;11.63;10.93;;;;;;;4.27;79.99;92808.41;5069383;28;20181;-76
2021/12/30 09:07:04;;;;;;;10.60;10.03;;;;;;;4.10;80.35;92806.84;5067370;28;20259;-76
2021/12/30 09:09:30;;;;;;;14.17;13.07;;;;;;;4.18;80.38;92809.03;5067232;28;20185;-76
2021/12/30 09:11:56;;;;;;;11.43;10.80;;;;;;;4.26;79.31;92814.63;5068904;28;20243;-76
2021/12/30 09:14:21;;;;;;;15.20;14.00;;;;;;;4.44;80.57;92814.38;5050834;28;20198;-76
2021/12/30 09:16:48;;;;;;;15.20;14.03;;;;;;;4.66;78.78;92812.63;5067379;28;20221;-77
2021/12/30 09:19:14;;;;;;;11.47;10.77;;;;;;;4.25;80.08;92823.38;5067690;28;20185;-76
2021/12/30 09:21:41;;;;;;;13.17;12.27;;;;;;;4.25;83.17;92825.94;5068256;28;20253;-76
2021/12/30 09:24:08;;;;;;;12.00;11.20;;;;;;;4.64;79.67;92830.16;5055089;28;20215;-76
2021/12/30 09:26:33;;;;;;;10.73;10.03;;;;;;;4.45;80.32;92823.69;5054828;28;20229;-77
2021/12/30 09:29:00;;;;;;;11.70;11.00;;;;;;;4.11;83.10;92826.50;5058255;28;20263;-76
2021/12/30 09:31:28;;;;;;;11.37;10.70;;;;;;;4.12;81.85;92815.94;5067320;28;20240;-76
2021/12/30 09:33:55;;;;;;;12.03;11.33;;;;;;;4.17;83.28;92828.91;5065627;28;20178;-76
2021/12/30 09:36:22;;;;;;;12.50;11.80;;;;;;;4.24;81.49;92826.97;5066195;28;20236;-76
2021/12/30 09:38:47;;;;;;;12.07;11.17;;;;;;;4.05;81.04;92825.63;5072134;28;20186;-76
2021/12/30 09:41:13;;;;;;;11.93;11.07;;;;;;;4.13;80.00;92802.00;5069857;28;20247;-76
2021/12/30 09:43:38;;;;;;;21.83;11.57;;;;;;;4.53;77.38;92825.88;5057481;28;20245;-77
2021/12/30 09:46:04;;;;;;;10.50;9.90;;;;;;;4.44;78.78;92816.16;5065206;28;20241;-76
2021/12/30 09:48:29;;;;;;;10.23;9.63;;;;;;;4.21;80.93;92834.41;5071577;28;20255;-76
2021/12/30 09:50:55;;;;;;;11.20;10.20;;;;;;;4.49;78.83;92829.97;5065892;28;20344;-76
2021/12/30 09:53:24;;;;;;;10.80;10.20;;;;;;;4.90;77.75;92841.66;5058392;28;20197;-75
2021/12/30 09:55:51;;;;;;;10.47;9.87;;;;;;;4.72;78.37;92840.13;5071082;28;20210;-76
2021/12/30 09:58:18;;;;;;;10.03;9.53;;;;;;;4.16;77.73;92822.19;5054344;28;20186;-76
2021/12/30 10:00:44;;;;;;;10.73;10.10;;;;;;;4.30;77.66;92838.16;5070939;28;20245;-76
2021/12/30 10:03:10;;;;;;;10.47;9.97;;;;;;;3.94;78.22;92846.38;5039026;28;20186;-76
2021/12/30 10:05:39;;;;;;;10.03;9.33;;;;;;;4.05;78.78;92838.53;5065678;28;20231;-76
2021/12/30 10:08:08;;;;;;;9.20;8.70;;;;;;;3.98;79.58;92848.25;5058567;28;20206;-76
2021/12/30 10:10:38;;;;;;;10.37;9.87;;;;;;;4.25;80.26;92843.28;5054762;28;20240;-76
2021/12/30 10:13:29;;;;;;;13.63;12.63;;;;;;;4.32;77.79;92841.31;5066245;28;20198;-76
2021/12/30 10:16:12;;;;;;;18.30;16.70;;;;;;;4.12;77.17;92846.94;5069218;28;20233;-76
2021/12/30 10:18:50;;;;;;;16.33;15.13;;;;;;;4.12;77.81;92841.78;5067511;28;20179;-76
2021/12/30 10:21:22;;;;;;;12.67;11.47;;;;;;;4.18;77.59;92850.38;5064228;28;20251;-76
2021/12/30 10:23:51;;;;;;;11.13;10.07;;;;;;;3.96;77.40;92852.84;5066823;28;20225;-76
2021/12/30 10:26:17;;;;;;;9.97;9.37;;;;;;;4.23;77.63;92853.84;5069049;28;20233;-76
2021/12/30 10:28:44;;;;;;;12.13;11.33;;;;;;;4.49;77.52;92842.09;5068440;28;20201;-76
2021/12/30 10:31:12;;;;;;;12.90;12.00;;;;;;;4.41;77.30;92845.06;5048305;28;20297;-76
2021/12/30 10:33:45;;;;;;;13.13;12.23;;;;;;;4.35;76.70;92841.63;5060763;28;20189;-76
2021/12/30 10:36:20;;;;;;;11.93;11.13;;;;;;;4.15;77.70;92849.06;5043452;28;20248;-76
2021/12/30 10:38:46;;;;;;;10.70;10.10;;;;;;;4.42;76.62;92847.41;5060799;28;20185;-76
2021/12/30 10:41:12;;;;;;;11.50;10.80;;;;;;;4.38;76.81;92823.06;5068766;28;20610;-76
2021/12/30 10:43:45;;;;;;;10.07;9.53;;;;;;;4.57;75.09;92855.41;5070466;28;20190;-76
2021/12/30 10:46:16;;;;;;;10.73;10.23;;;;;;;4.49;75.71;92860.97;5070730;28;20236;-76
2021/12/30 10:49:09;;;;;;;11.23;10.63;;;;;;;4.21;76.61;92861.03;5067943;28;20185;-76
2021/12/30 10:51:37;;;;;;;10.33;9.80;;;;;;;4.53;76.80;92859.47;5059654;28;20237;-76
2021/12/30 10:54:15;;;;;;;11.17;10.37;;;;;;;4.51;75.28;92855.56;5068073;28;20197;-76
2021/12/30 10:57:04;;;;;;;10.80;10.20;;;;;;;4.26;75.97;92853.38;5057064;28;20233;-76
2021/12/30 10:59:49;;;;;;;9.43;8.93;;;;;;;4.43;75.11;92848.19;5045963;28;20189;-76
2021/12/30 11:02:23;;;;;;;11.00;10.40;;;;;;;4.68;75.20;92859.72;5058256;28;20232;-76
2021/12/30 11:04:56;;;;;;;10.90;10.30;;;;;;;4.94;73.50;92860.84;5061754;28;20208;-76
2021/12/30 11:07:43;;;;;;;11.03;10.33;;;;;;;4.41;73.82;92865.75;5068012;28;20221;-76
2021/12/30 11:10:10;;;;;;;11.43;10.73;;;;;;;4.78;75.65;92866.81;5069075;28;20319;-76
2021/12/30 11:12:41;;;;;;;10.50;9.80;;;;;;;5.21;71.80;92864.31;5067713;28;20204;-76
2021/12/30 11:15:23;;;;;;;11.97;11.27;;;;;;;5.25;72.82;92865.41;5056411;28;20190;-79
2021/12/30 11:17:50;;;;;;;11.23;10.53;;;;;;;4.84;71.37;92848.56;5070819;28;20239;-76
2021/12/30 11:20:18;;;;;;;10.33;9.73;;;;;;;5.02;72.41;92868.19;5053174;28;20182;-76
2021/12/30 11:22:44;;;;;;;10.43;9.93;;;;;;;5.20;71.81;92880.09;5053365;28;20226;-76
2021/12/30 11:25:12;;;;;;;11.07;10.30;;;;;;;4.94;72.19;92887.50;5053102;28;20200;-76
2021/12/30 11:27:40;;;;;;;11.03;10.33;;;;;;;4.40;72.39;92859.81;5047319;28;20208;-76